createdAt,value
2022-11-12T00:00:56.346Z,99.00
2022-11-12T00:03:22.928Z,99.10
2022-11-12T00:05:50.661Z,99.00
2022-11-12T00:08:17.821Z,99.30
2022-11-12T00:10:45.260Z,99.30
2022-11-12T00:13:12.351Z,99.40
2022-11-12T00:15:40.050Z,99.30
2022-11-12T00:18:07.601Z,99.30
2022-11-12T00:20:34.902Z,99.20
2022-11-12T00:23:01.781Z,99.30
2022-11-12T00:25:28.600Z,99.20
2022-11-12T00:28:01.311Z,99.10
2022-11-12T00:30:27.937Z,99.10
2022-11-12T00:32:54.499Z,98.90
2022-11-12T00:35:21.072Z,99.10
2022-11-12T00:37:47.668Z,99.30
2022-11-12T00:40:14.406Z,99.30
2022-11-12T00:42:40.988Z,99.10
2022-11-12T00:45:07.927Z,99.10
2022-11-12T00:47:34.570Z,99.10
2022-11-12T00:50:01.335Z,99.20
2022-11-12T00:52:27.982Z,99.40
2022-11-12T00:54:54.576Z,99.90
2022-11-12T00:57:21.174Z,99.70
2022-11-12T00:59:47.741Z,99.80
2022-11-12T01:02:14.371Z,99.70
2022-11-12T01:04:40.955Z,99.40
2022-11-12T01:07:07.585Z,99.20
2022-11-12T01:09:34.300Z,99.20
2022-11-12T01:12:00.883Z,99.20
2022-11-12T01:14:27.565Z,99.40
2022-11-12T01:16:54.168Z,99.90
2022-11-12T01:19:20.812Z,99.90
2022-11-12T01:21:47.410Z,99.90
2022-11-12T01:24:13.991Z,99.90
2022-11-12T01:26:40.655Z,99.90
2022-11-12T01:29:07.459Z,99.90
2022-11-12T01:31:36.913Z,99.90
2022-11-12T01:34:06.218Z,99.90
2022-11-12T01:36:36.503Z,99.90
2022-11-12T01:39:05.207Z,99.90
2022-11-12T01:41:34.228Z,99.90
2022-11-12T01:44:16.288Z,99.90
2022-11-12T01:47:07.759Z,99.90
2022-11-12T01:49:58.113Z,99.90
2022-11-12T01:52:27.610Z,99.90
2022-11-12T01:55:00.619Z,99.90
2022-11-12T01:57:34.797Z,99.90
2022-11-12T02:00:06.850Z,99.90
2022-11-12T02:02:35.135Z,99.90
2022-11-12T02:05:04.467Z,99.90
2022-11-12T02:07:32.594Z,99.90
2022-11-12T02:10:02.249Z,99.90
2022-11-12T02:12:48.391Z,99.90
2022-11-12T02:15:15.160Z,99.90
2022-11-12T02:17:41.813Z,99.90
2022-11-12T02:20:10.984Z,99.90
2022-11-12T02:22:37.608Z,99.90
2022-11-12T02:25:04.698Z,99.90
2022-11-12T02:27:31.323Z,99.90
2022-11-12T02:29:57.897Z,99.90
2022-11-12T02:32:24.499Z,99.90
2022-11-12T02:34:51.109Z,99.90
2022-11-12T02:37:17.684Z,99.90
2022-11-12T02:39:44.254Z,99.90
2022-11-12T02:42:10.837Z,99.90
2022-11-12T02:44:37.521Z,99.90
2022-11-12T02:47:04.141Z,99.90
2022-11-12T02:49:30.725Z,99.90
2022-11-12T02:51:57.330Z,99.90
2022-11-12T02:54:23.965Z,99.90
2022-11-12T02:56:50.610Z,99.90
2022-11-12T02:59:17.261Z,99.90
2022-11-12T03:01:43.859Z,99.90
2022-11-12T03:04:10.449Z,99.90
2022-11-12T03:06:37.504Z,99.90
2022-11-12T03:09:04.188Z,99.90
2022-11-12T03:11:30.797Z,99.90
2022-11-12T03:13:57.389Z,99.90
2022-11-12T03:16:23.995Z,99.90
2022-11-12T03:18:50.600Z,99.90
2022-11-12T03:21:17.279Z,99.90
2022-11-12T03:23:43.857Z,99.90
2022-11-12T03:26:10.509Z,99.90
2022-11-12T03:28:37.153Z,99.90
2022-11-12T03:31:03.910Z,99.90
2022-11-12T03:33:30.679Z,99.90
2022-11-12T03:35:57.295Z,99.90
2022-11-12T03:38:24.185Z,99.90
2022-11-12T03:40:51.163Z,99.90
2022-11-12T03:43:17.864Z,99.90
2022-11-12T03:45:44.493Z,99.90
2022-11-12T03:48:11.174Z,99.90
2022-11-12T03:50:37.821Z,99.90
2022-11-12T03:53:04.442Z,99.90
2022-11-12T03:55:31.181Z,99.90
2022-11-12T03:57:58.526Z,99.90
2022-11-12T04:00:27.261Z,99.90
2022-11-12T04:02:54.532Z,99.90
2022-11-12T04:05:40.077Z,99.90
2022-11-12T04:08:33.936Z,99.90
2022-11-12T04:11:01.958Z,99.90
2022-11-12T04:13:29.267Z,99.90
2022-11-12T04:16:22.194Z,99.90
2022-11-12T04:19:09.465Z,99.90
2022-11-12T04:21:56.686Z,99.90
2022-11-12T04:24:53.500Z,99.90
2022-11-12T04:27:25.491Z,99.90
2022-11-12T04:30:11.861Z,99.90
2022-11-12T04:32:40.510Z,99.90
2022-11-12T04:35:09.006Z,99.90
2022-11-12T04:37:45.921Z,99.90
2022-11-12T04:40:45.044Z,99.90
2022-11-12T04:43:32.362Z,99.90
2022-11-12T04:45:59.456Z,99.90
2022-11-12T04:48:26.541Z,99.90
2022-11-12T04:50:59.442Z,99.90
2022-11-12T04:53:26.075Z,99.90
2022-11-12T04:55:54.767Z,99.90
2022-11-12T04:58:22.192Z,99.90
2022-11-12T05:00:49.714Z,99.90
2022-11-12T05:03:17.461Z,99.90
2022-11-12T05:05:44.160Z,99.90
2022-11-12T05:08:10.769Z,99.90
2022-11-12T05:10:37.362Z,99.90
2022-11-12T05:13:03.920Z,99.90
2022-11-12T05:15:30.562Z,99.90
2022-11-12T05:17:57.749Z,99.90
2022-11-12T05:20:24.365Z,99.90
2022-11-12T05:23:05.628Z,99.90
2022-11-12T05:25:35.520Z,99.90
2022-11-12T05:28:02.114Z,99.90
2022-11-12T05:30:28.689Z,99.90
2022-11-12T05:32:55.290Z,99.90
2022-11-12T05:35:21.944Z,99.90
2022-11-12T05:37:48.544Z,99.90
2022-11-12T05:40:15.198Z,99.90
2022-11-12T05:42:41.816Z,99.90
2022-11-12T05:45:09.113Z,99.90
2022-11-12T05:47:35.687Z,99.90
2022-11-12T05:50:02.325Z,99.90
2022-11-12T05:52:28.938Z,99.90
2022-11-12T05:54:55.532Z,99.90
2022-11-12T05:57:22.149Z,99.90
2022-11-12T05:59:48.740Z,99.90
2022-11-12T06:02:15.432Z,99.90
2022-11-12T06:04:42.078Z,99.90
2022-11-12T06:07:08.739Z,99.90
2022-11-12T06:09:35.438Z,99.90
2022-11-12T06:12:06.119Z,99.90
2022-11-12T06:14:32.724Z,99.90
2022-11-12T06:16:59.296Z,99.90
2022-11-12T06:19:25.956Z,99.90
2022-11-12T06:21:52.572Z,99.90
2022-11-12T06:24:19.314Z,99.90
2022-11-12T06:26:45.934Z,99.90
2022-11-12T06:29:12.698Z,99.90
2022-11-12T06:31:39.299Z,99.90
2022-11-12T06:34:07.026Z,99.90
2022-11-12T06:36:33.944Z,99.90
2022-11-12T06:39:00.575Z,99.90
2022-11-12T06:41:27.167Z,99.90
2022-11-12T06:43:53.813Z,99.90
2022-11-12T06:46:20.539Z,99.90
2022-11-12T06:48:47.151Z,99.90
2022-11-12T06:51:19.884Z,99.90
2022-11-12T06:53:46.945Z,99.90
2022-11-12T06:56:14.256Z,99.90
2022-11-12T06:58:41.895Z,99.90
2022-11-12T07:01:14.236Z,99.90
2022-11-12T07:03:42.558Z,99.90
2022-11-12T07:06:11.854Z,99.90
2022-11-12T07:08:39.430Z,99.90
2022-11-12T07:11:07.119Z,99.90
2022-11-12T07:13:35.174Z,99.90
2022-11-12T07:16:02.794Z,99.90
2022-11-12T07:18:30.270Z,99.90
2022-11-12T07:21:01.870Z,99.90
2022-11-12T07:23:30.427Z,99.90
2022-11-12T07:26:02.403Z,99.90
2022-11-12T07:28:29.923Z,99.90
2022-11-12T07:31:01.280Z,99.90
2022-11-12T07:33:28.801Z,99.90
2022-11-12T07:36:05.665Z,99.90
2022-11-12T07:38:36.083Z,99.90
2022-11-12T07:41:04.067Z,99.90
2022-11-12T07:43:32.145Z,99.90
2022-11-12T07:46:10.917Z,99.90
2022-11-12T07:48:38.148Z,99.90
2022-11-12T07:51:07.211Z,99.90
2022-11-12T07:53:34.050Z,99.90
2022-11-12T07:56:02.140Z,99.90
2022-11-12T07:58:31.321Z,99.90
2022-11-12T08:00:58.456Z,99.90
2022-11-12T08:03:25.483Z,99.90
2022-11-12T08:05:52.110Z,99.90
2022-11-12T08:08:18.721Z,99.90
2022-11-12T08:10:45.290Z,99.90
2022-11-12T08:13:11.830Z,99.90
2022-11-12T08:15:38.443Z,99.90
2022-11-12T08:18:05.109Z,99.90
2022-11-12T08:20:31.741Z,99.90
2022-11-12T08:23:01.743Z,99.90
2022-11-12T08:25:28.405Z,99.90
2022-11-12T08:27:59.394Z,99.90
2022-11-12T08:30:27.508Z,99.90
2022-11-12T08:33:03.437Z,99.90
2022-11-12T08:35:31.596Z,99.90
2022-11-12T08:38:02.454Z,99.90
2022-11-12T08:40:31.033Z,99.90
2022-11-12T08:43:06.450Z,99.90
2022-11-12T08:45:34.828Z,99.90
2022-11-12T08:48:06.657Z,99.90
2022-11-12T08:50:34.384Z,99.90
2022-11-12T08:53:02.592Z,99.90
2022-11-12T08:55:30.509Z,99.90
2022-11-12T08:58:01.840Z,99.70
2022-11-12T09:00:33.566Z,99.50
2022-11-12T09:03:01.135Z,99.00
2022-11-12T09:05:28.561Z,98.60
2022-11-12T09:07:59.965Z,98.30
2022-11-12T09:10:27.627Z,98.20
2022-11-12T09:12:54.630Z,97.80
2022-11-12T09:15:38.883Z,97.80
2022-11-12T09:18:10.783Z,97.50
2022-11-12T09:20:37.482Z,97.10
2022-11-12T09:23:08.198Z,96.90
2022-11-12T09:25:36.446Z,97.00
2022-11-12T09:28:17.836Z,97.40
2022-11-12T09:30:50.047Z,98.10
2022-11-12T09:33:24.657Z,97.50
2022-11-12T09:35:52.427Z,97.40
2022-11-12T09:38:20.186Z,97.40
2022-11-12T09:40:52.930Z,97.30
2022-11-12T09:43:32.747Z,96.50
2022-11-12T09:46:32.490Z,97.30
2022-11-12T09:49:16.181Z,98.00
2022-11-12T09:51:51.926Z,97.60
2022-11-12T09:54:27.433Z,97.70
2022-11-12T09:56:54.681Z,97.50
2022-11-12T09:59:23.059Z,97.60
2022-11-12T10:01:55.044Z,98.10
2022-11-12T10:04:41.864Z,98.80
2022-11-12T10:07:37.635Z,97.90
2022-11-12T10:10:18.181Z,97.60
2022-11-12T10:12:50.571Z,96.10
2022-11-12T10:16:09.207Z,95.00
2022-11-12T10:18:58.813Z,94.20
2022-11-12T10:21:43.476Z,94.00
2022-11-12T10:24:11.643Z,93.70
2022-11-12T10:26:40.149Z,92.20
2022-11-12T10:29:31.271Z,92.40
2022-11-12T10:32:00.591Z,92.20
2022-11-12T10:34:27.329Z,91.90
2022-11-12T10:37:10.336Z,92.00
2022-11-12T10:39:46.238Z,91.60
2022-11-12T10:42:15.476Z,90.40
2022-11-12T10:44:43.391Z,89.20
2022-11-12T10:47:46.556Z,88.70
2022-11-12T10:50:22.830Z,89.20
2022-11-12T10:53:00.215Z,88.30
2022-11-12T10:55:29.513Z,87.20
2022-11-12T10:58:05.992Z,87.60
2022-11-12T11:00:32.797Z,86.00
2022-11-12T11:03:02.196Z,86.10
2022-11-12T11:05:34.854Z,83.40
2022-11-12T11:08:02.315Z,83.40
2022-11-12T11:10:34.746Z,84.20
2022-11-12T11:13:27.329Z,81.60
2022-11-12T11:16:05.413Z,80.80
2022-11-12T11:18:37.948Z,80.70
2022-11-12T11:21:19.062Z,80.90
2022-11-12T11:24:07.025Z,81.00
2022-11-12T11:27:03.998Z,80.60
2022-11-12T11:29:35.858Z,79.30
2022-11-12T11:32:20.717Z,80.30
2022-11-12T11:35:15.250Z,80.00
2022-11-12T11:38:02.505Z,79.90
2022-11-12T11:40:37.970Z,79.60
2022-11-12T11:43:23.028Z,76.70
2022-11-12T11:45:49.502Z,76.60
2022-11-12T11:48:46.309Z,76.70
2022-11-12T11:51:31.582Z,77.00
2022-11-12T11:54:13.830Z,76.00
2022-11-12T11:56:43.380Z,76.00
2022-11-12T11:59:28.414Z,76.30
2022-11-12T12:02:13.826Z,76.60
2022-11-12T12:04:51.571Z,75.40
2022-11-12T12:07:30.006Z,75.20
2022-11-12T12:10:09.209Z,75.00
2022-11-12T12:12:45.033Z,75.00
2022-11-12T12:15:35.104Z,74.60
2022-11-12T12:18:22.075Z,75.80
2022-11-12T12:20:59.776Z,72.70
2022-11-12T12:23:28.660Z,72.90
2022-11-12T12:26:00.481Z,72.70
2022-11-12T12:28:37.312Z,70.90
2022-11-12T12:31:18.606Z,71.60
2022-11-12T12:33:48.106Z,71.30
2022-11-12T12:36:19.879Z,71.80
2022-11-12T12:38:55.527Z,70.90
2022-11-12T12:41:27.653Z,71.40
2022-11-12T12:43:58.079Z,70.10
2022-11-12T12:46:28.145Z,70.60
2022-11-12T12:48:57.641Z,70.20
2022-11-12T12:51:28.262Z,69.00
2022-11-12T12:53:54.918Z,69.30
2022-11-12T12:56:24.323Z,69.30
2022-11-12T12:58:51.472Z,69.00
2022-11-12T13:01:21.103Z,69.80
2022-11-12T13:03:53.561Z,70.30
2022-11-12T13:06:29.304Z,69.20
2022-11-12T13:09:20.059Z,68.50
2022-11-12T13:12:06.592Z,67.80
2022-11-12T13:14:36.397Z,68.50
2022-11-12T13:17:08.999Z,66.80
2022-11-12T13:19:49.237Z,67.60
2022-11-12T13:22:18.890Z,67.40
2022-11-12T13:25:13.347Z,67.20
2022-11-12T13:27:45.862Z,66.60
2022-11-12T13:30:18.252Z,67.00
2022-11-12T13:32:47.799Z,67.10
2022-11-12T13:35:23.247Z,66.10
2022-11-12T13:38:08.237Z,67.30
2022-11-12T13:40:43.795Z,68.10
2022-11-12T13:43:18.805Z,68.60
2022-11-12T13:45:49.709Z,69.30
2022-11-12T13:48:38.770Z,69.60
2022-11-12T13:51:32.005Z,70.70
2022-11-12T13:53:59.057Z,71.70
2022-11-12T13:56:32.299Z,72.20
2022-11-12T13:59:16.508Z,72.80
2022-11-12T14:01:43.618Z,73.70
2022-11-12T14:04:15.586Z,73.90
2022-11-12T14:06:51.890Z,74.90
2022-11-12T14:09:37.160Z,75.70
2022-11-12T14:12:03.747Z,76.20
2022-11-12T14:14:59.958Z,76.70
2022-11-12T14:17:29.322Z,76.70
2022-11-12T14:20:14.072Z,77.00
2022-11-12T14:22:43.071Z,77.50
2022-11-12T14:25:21.181Z,77.50
2022-11-12T14:27:49.697Z,77.00
2022-11-12T14:30:21.336Z,77.00
2022-11-12T14:32:53.649Z,77.30
2022-11-12T14:35:23.277Z,77.60
2022-11-12T14:37:53.455Z,78.00
2022-11-12T14:40:20.578Z,78.60
2022-11-12T14:42:47.513Z,78.90
2022-11-12T14:45:17.364Z,79.30
2022-11-12T14:47:45.674Z,79.80
2022-11-12T14:50:31.712Z,80.20
2022-11-12T14:53:07.835Z,80.40
2022-11-12T14:55:36.982Z,81.00
2022-11-12T14:58:04.999Z,81.30
2022-11-12T15:00:34.442Z,81.50
2022-11-12T15:03:01.968Z,82.00
2022-11-12T15:05:28.807Z,82.50
2022-11-12T15:08:04.867Z,82.70
2022-11-12T15:10:33.573Z,83.20
2022-11-12T15:13:18.706Z,83.50
2022-11-12T15:16:07.841Z,83.80
2022-11-12T15:18:36.488Z,84.10
2022-11-12T15:21:12.279Z,84.50
2022-11-12T15:23:54.827Z,85.20
2022-11-12T15:26:32.420Z,85.50
2022-11-12T15:29:00.109Z,86.10
2022-11-12T15:31:26.821Z,86.20
2022-11-12T15:33:53.441Z,86.50
2022-11-12T15:36:22.729Z,87.00
2022-11-12T15:38:52.585Z,86.90
2022-11-12T15:41:30.458Z,87.20
2022-11-12T15:43:57.324Z,88.00
2022-11-12T15:46:23.983Z,87.90
2022-11-12T15:48:55.797Z,88.00
2022-11-12T15:51:22.941Z,88.10
2022-11-12T15:53:49.565Z,88.20
2022-11-12T15:56:19.176Z,88.40
2022-11-12T15:58:45.873Z,88.80
2022-11-12T16:01:12.792Z,89.10
2022-11-12T16:03:39.737Z,89.30
2022-11-12T16:06:09.161Z,89.30
2022-11-12T16:08:36.344Z,89.50
2022-11-12T16:11:03.235Z,89.70
2022-11-12T16:13:33.156Z,89.90
2022-11-12T16:16:03.814Z,90.00
2022-11-12T16:18:30.396Z,90.20
2022-11-12T16:20:56.989Z,90.50
2022-11-12T16:23:23.583Z,90.80
2022-11-12T16:25:50.420Z,90.90
2022-11-12T16:28:18.753Z,91.20
2022-11-12T16:30:46.250Z,91.30
2022-11-12T16:33:13.711Z,91.40
2022-11-12T16:35:40.754Z,91.60
2022-11-12T16:38:15.379Z,91.60
2022-11-12T16:40:42.802Z,91.80
2022-11-12T16:43:09.570Z,92.10
2022-11-12T16:45:39.389Z,92.30
2022-11-12T16:48:21.117Z,92.50
2022-11-12T16:50:47.944Z,92.80
2022-11-12T16:53:14.569Z,92.80
2022-11-12T16:55:41.445Z,93.00
2022-11-12T16:58:15.057Z,93.30
2022-11-12T17:00:45.515Z,93.30
2022-11-12T17:03:15.885Z,93.50
2022-11-12T17:05:42.473Z,93.70
2022-11-12T17:08:10.675Z,93.80
2022-11-12T17:10:37.283Z,94.00
2022-11-12T17:13:03.876Z,94.10
2022-11-12T17:15:30.536Z,94.20
2022-11-12T17:17:57.120Z,94.20
2022-11-12T17:20:23.720Z,94.30
2022-11-12T17:22:50.336Z,94.40
2022-11-12T17:25:17.001Z,94.40
2022-11-12T17:27:43.602Z,94.60
2022-11-12T17:30:11.854Z,94.70
2022-11-12T17:32:38.906Z,94.80
2022-11-12T17:35:06.110Z,94.80
2022-11-12T17:37:32.777Z,94.90
2022-11-12T17:39:59.343Z,95.00
2022-11-12T17:42:26.055Z,95.10
2022-11-12T17:44:52.681Z,95.20
2022-11-12T17:47:19.278Z,95.20
2022-11-12T17:49:45.928Z,95.10
2022-11-12T17:52:12.510Z,96.00
2022-11-12T17:54:39.162Z,95.30
2022-11-12T17:57:05.907Z,95.50
2022-11-12T17:59:32.548Z,95.60
2022-11-12T18:01:59.150Z,95.70
2022-11-12T18:04:29.832Z,95.80
2022-11-12T18:07:00.019Z,95.80
2022-11-12T18:09:26.827Z,96.00
2022-11-12T18:11:54.885Z,95.90
2022-11-12T18:14:22.984Z,96.00
2022-11-12T18:16:49.628Z,96.10
2022-11-12T18:19:16.230Z,96.50
2022-11-12T18:21:42.898Z,96.20
2022-11-12T18:24:15.195Z,96.10
2022-11-12T18:26:42.850Z,96.20
2022-11-12T18:29:09.488Z,96.00
2022-11-12T18:31:36.179Z,96.20
2022-11-12T18:34:02.787Z,96.40
2022-11-12T18:36:29.363Z,96.50
2022-11-12T18:38:56.362Z,96.40
2022-11-12T18:41:26.597Z,96.50
2022-11-12T18:43:54.500Z,96.60
2022-11-12T18:46:21.481Z,96.70
2022-11-12T18:48:48.543Z,96.70
2022-11-12T18:51:17.304Z,96.60
2022-11-12T18:53:45.570Z,96.80
2022-11-12T18:56:17.893Z,96.90
2022-11-12T18:58:46.290Z,97.00
2022-11-12T19:01:23.993Z,97.10
2022-11-12T19:03:55.937Z,97.10
2022-11-12T19:06:24.299Z,97.10
2022-11-12T19:08:51.338Z,97.10
2022-11-12T19:11:21.631Z,97.00
2022-11-12T19:13:55.231Z,97.10
2022-11-12T19:16:23.050Z,97.20
2022-11-12T19:18:51.160Z,97.10
2022-11-12T19:21:23.297Z,97.00
2022-11-12T19:23:54.611Z,97.00
2022-11-12T19:26:22.945Z,97.00
2022-11-12T19:28:49.767Z,97.00
2022-11-12T19:31:21.776Z,97.00
2022-11-12T19:33:49.053Z,97.10
2022-11-12T19:36:18.718Z,97.10
2022-11-12T19:38:45.282Z,97.20
2022-11-12T19:41:18.961Z,97.20
2022-11-12T19:43:46.412Z,97.20
2022-11-12T19:46:13.608Z,97.30
2022-11-12T19:48:40.240Z,97.30
2022-11-12T19:51:09.093Z,98.00
2022-11-12T19:53:41.544Z,97.30
2022-11-12T19:56:08.495Z,97.40
2022-11-12T19:58:35.157Z,97.30
2022-11-12T20:01:06.733Z,97.30
2022-11-12T20:03:33.932Z,97.30
2022-11-12T20:06:09.925Z,97.30
2022-11-12T20:08:37.098Z,97.30
2022-11-12T20:11:04.174Z,97.30
2022-11-12T20:13:31.040Z,97.40
2022-11-12T20:15:57.646Z,97.40
2022-11-12T20:18:24.707Z,97.40
2022-11-12T20:20:56.579Z,97.30
2022-11-12T20:23:24.007Z,97.30
2022-11-12T20:25:51.832Z,97.40
2022-11-12T20:28:18.878Z,97.40
2022-11-12T20:30:45.717Z,97.40
2022-11-12T20:33:15.737Z,97.40
2022-11-12T20:35:42.477Z,97.20
2022-11-12T20:38:09.189Z,97.40
2022-11-12T20:40:35.851Z,97.30
2022-11-12T20:43:02.516Z,97.40
2022-11-12T20:45:29.116Z,97.40
2022-11-12T20:47:56.267Z,97.40
2022-11-12T20:50:23.488Z,97.40
2022-11-12T20:52:50.270Z,98.20
2022-11-12T20:55:17.145Z,97.40
2022-11-12T20:57:43.800Z,97.40
2022-11-12T21:00:13.945Z,97.40
2022-11-12T21:02:41.951Z,97.40
2022-11-12T21:05:08.864Z,97.40
2022-11-12T21:07:35.569Z,97.50
2022-11-12T21:10:02.810Z,97.50
2022-11-12T21:12:30.793Z,97.70
2022-11-12T21:14:57.396Z,97.70
2022-11-12T21:17:24.044Z,97.70
2022-11-12T21:19:50.650Z,97.60
2022-11-12T21:22:17.616Z,97.70
2022-11-12T21:24:44.190Z,97.70
2022-11-12T21:27:11.714Z,97.80
2022-11-12T21:29:38.346Z,97.90
2022-11-12T21:32:05.141Z,97.80
2022-11-12T21:34:31.892Z,97.90
2022-11-12T21:36:59.096Z,97.80
2022-11-12T21:39:25.658Z,97.80
2022-11-12T21:41:53.908Z,97.90
2022-11-12T21:44:21.064Z,97.80
2022-11-12T21:46:47.662Z,97.90
2022-11-12T21:49:14.291Z,97.90
2022-11-12T21:51:41.063Z,97.90
2022-11-12T21:54:07.938Z,97.90
2022-11-12T21:56:34.876Z,97.90
2022-11-12T21:59:03.871Z,97.80
2022-11-12T22:01:33.954Z,97.60
2022-11-12T22:04:04.148Z,97.70
2022-11-12T22:06:30.781Z,97.70
2022-11-12T22:08:58.195Z,97.80
2022-11-12T22:11:27.578Z,97.80
2022-11-12T22:13:54.198Z,97.80
2022-11-12T22:16:26.293Z,97.70
2022-11-12T22:18:54.684Z,97.70
2022-11-12T22:21:27.186Z,97.80
2022-11-12T22:23:55.056Z,97.80
2022-11-12T22:26:25.275Z,97.90
2022-11-12T22:28:53.360Z,97.80
2022-11-12T22:31:24.278Z,97.80
2022-11-12T22:33:51.041Z,97.80
2022-11-12T22:36:20.904Z,97.80
2022-11-12T22:38:50.193Z,97.80
2022-11-12T22:41:22.649Z,97.80
2022-11-12T22:43:54.279Z,97.70
2022-11-12T22:46:35.614Z,97.70
2022-11-12T22:49:03.573Z,97.70
2022-11-12T22:51:32.849Z,97.80
2022-11-12T22:54:01.809Z,97.80
2022-11-12T22:56:29.212Z,97.90
2022-11-12T22:58:55.965Z,97.90
2022-11-12T23:01:31.100Z,97.80
2022-11-12T23:03:59.898Z,98.60
2022-11-12T23:06:27.600Z,97.80
2022-11-12T23:08:55.322Z,97.80
2022-11-12T23:11:22.447Z,97.80
2022-11-12T23:13:49.160Z,97.90
2022-11-12T23:16:18.306Z,97.90
2022-11-12T23:18:45.341Z,97.90
2022-11-12T23:21:17.780Z,97.90
2022-11-12T23:23:44.394Z,97.90
2022-11-12T23:26:12.860Z,98.00
2022-11-12T23:28:39.486Z,97.90
2022-11-12T23:31:19.406Z,97.90
2022-11-12T23:33:47.202Z,97.90
2022-11-12T23:36:14.221Z,98.00
2022-11-12T23:38:41.302Z,98.80
2022-11-12T23:41:09.670Z,98.10
2022-11-12T23:43:36.283Z,98.10
2022-11-12T23:46:03.228Z,98.20
2022-11-12T23:48:30.454Z,98.30
2022-11-12T23:51:10.428Z,98.30
2022-11-12T23:53:38.380Z,98.20
2022-11-12T23:56:06.738Z,98.20
2022-11-12T23:58:33.550Z,98.20
